createdAt,value
2019-03-22T00:03:53.734Z,13.17
2019-03-22T00:24:03.209Z,11.71
2019-03-22T00:44:12.629Z,7.93
2019-03-22T01:04:22.061Z,7.02
2019-03-22T01:24:31.529Z,5.81
2019-03-22T01:44:43.132Z,3.01
2019-03-22T02:04:42.495Z,4.46
2019-03-22T02:24:51.994Z,2.43
2019-03-22T02:45:01.360Z,2.32
2019-03-22T03:05:13.026Z,3.77
2019-03-22T03:25:14.773Z,3.27
2019-03-22T03:45:14.174Z,4.21
2019-03-22T04:05:23.568Z,9.40
2019-03-22T04:25:33.044Z,7.78
2019-03-22T04:45:42.459Z,8.56
2019-03-22T05:05:51.824Z,9.25
2019-03-22T05:26:01.322Z,11.10
2019-03-22T05:46:12.994Z,8.57
2019-03-22T06:06:12.431Z,10.14
2019-03-22T06:26:24.106Z,10.25
2019-03-22T06:46:26.587Z,10.53
2019-03-22T07:06:28.245Z,9.57
2019-03-22T07:26:30.033Z,7.78
2019-03-22T07:46:36.882Z,7.65
2019-03-22T08:06:46.300Z,5.36
2019-03-22T08:26:55.718Z,8.60
2019-03-22T08:47:08.018Z,8.85
2019-03-22T09:07:07.375Z,6.22
2019-03-22T09:27:16.928Z,5.55
2019-03-22T09:47:26.412Z,4.67
2019-03-22T10:07:34.536Z,6.45
2019-03-22T10:27:46.235Z,7.43
2019-03-22T10:47:45.613Z,5.31
2019-03-22T11:07:54.973Z,5.79
2019-03-22T11:28:04.374Z,7.30
2019-03-22T11:48:16.063Z,5.84
2019-03-22T12:08:15.547Z,6.25
2019-03-22T12:28:25.003Z,3.93
2019-03-22T12:48:37.580Z,5.18
2019-03-22T13:08:37.038Z,5.76
2019-03-22T13:28:46.390Z,4.77
2019-03-22T13:48:55.737Z,5.52
2019-03-22T14:09:05.139Z,3.97
2019-03-22T14:29:16.786Z,6.20
2019-03-22T14:49:16.176Z,6.27
2019-03-22T15:09:25.665Z,4.54
2019-03-22T15:29:35.118Z,3.78
2019-03-22T15:49:44.584Z,5.03
2019-03-22T16:09:54.159Z,3.43
2019-03-22T16:29:54.237Z,3.99
2019-03-22T16:50:03.700Z,5.73
2019-03-22T17:10:23.561Z,4.23
2019-03-22T17:30:23.345Z,4.69
2019-03-22T17:50:30.995Z,3.85
2019-03-22T18:10:40.571Z,4.00
2019-03-22T18:30:52.419Z,5.46
2019-03-22T18:50:56.927Z,4.14
2019-03-22T19:10:54.545Z,4.74
2019-03-22T19:30:54.101Z,4.86
2019-03-22T19:51:08.143Z,4.97
2019-03-22T20:11:06.150Z,4.83
2019-03-22T20:31:15.665Z,5.00
2019-03-22T20:51:25.064Z,5.64
2019-03-22T21:11:40.426Z,4.56
2019-03-22T21:31:38.292Z,5.37
2019-03-22T21:51:47.623Z,6.79
2019-03-22T22:11:57.005Z,4.44
2019-03-22T22:32:06.331Z,5.20
2019-03-22T22:52:15.732Z,6.33
2019-03-22T23:12:31.995Z,6.38
2019-03-22T23:32:31.611Z,6.24
2019-03-22T23:52:40.980Z,5.75
